sensor_id;sensor_type;location;lat;lon;timestamp;temperature;humidity
67379;DHT22;54262;44.642;-0.974;2023-12-14T00:02:18;13.20;99.90
67379;DHT22;54262;44.642;-0.974;2023-12-14T00:04:44;13.00;99.90
67379;DHT22;54262;44.642;-0.974;2023-12-14T00:07:09;13.00;99.90
67379;DHT22;54262;44.642;-0.974;2023-12-14T00:09:40;13.10;99.90
67379;DHT22;54262;44.642;-0.974;2023-12-14T00:12:05;13.10;99.90
67379;DHT22;54262;44.642;-0.974;2023-12-14T00:14:31;13.10;99.90
67379;DHT22;54262;44.642;-0.974;2023-12-14T00:16:57;13.10;99.90
67379;DHT22;54262;44.642;-0.974;2023-12-14T00:19:24;13.10;99.90
67379;DHT22;54262;44.642;-0.974;2023-12-14T00:21:50;13.20;99.90
67379;DHT22;54262;44.642;-0.974;2023-12-14T00:24:15;13.20;99.90
67379;DHT22;54262;44.642;-0.974;2023-12-14T00:26:44;13.10;99.90
67379;DHT22;54262;44.642;-0.974;2023-12-14T00:29:10;13.00;99.90
67379;DHT22;54262;44.642;-0.974;2023-12-14T00:31:38;13.00;99.90
67379;DHT22;54262;44.642;-0.974;2023-12-14T00:34:03;12.90;99.90
67379;DHT22;54262;44.642;-0.974;2023-12-14T00:36:29;12.70;99.90
67379;DHT22;54262;44.642;-0.974;2023-12-14T00:38:54;12.80;99.90
67379;DHT22;54262;44.642;-0.974;2023-12-14T00:41:22;12.90;99.90
67379;DHT22;54262;44.642;-0.974;2023-12-14T00:43:48;13.00;99.90
67379;DHT22;54262;44.642;-0.974;2023-12-14T00:46:13;13.10;99.90
67379;DHT22;54262;44.642;-0.974;2023-12-14T00:48:39;13.20;99.90
67379;DHT22;54262;44.642;-0.974;2023-12-14T00:51:05;13.30;99.90
67379;DHT22;54262;44.642;-0.974;2023-12-14T00:53:31;13.10;99.90
67379;DHT22;54262;44.642;-0.974;2023-12-14T00:55:56;13.20;99.90
67379;DHT22;54262;44.642;-0.974;2023-12-14T00:58:22;13.40;99.90
67379;DHT22;54262;44.642;-0.974;2023-12-14T01:00:48;13.40;99.90
67379;DHT22;54262;44.642;-0.974;2023-12-14T01:03:13;13.30;99.90
67379;DHT22;54262;44.642;-0.974;2023-12-14T01:05:39;13.20;99.90
67379;DHT22;54262;44.642;-0.974;2023-12-14T01:08:05;13.10;99.90
67379;DHT22;54262;44.642;-0.974;2023-12-14T01:10:31;13.10;99.90
67379;DHT22;54262;44.642;-0.974;2023-12-14T01:12:56;13.10;99.90
67379;DHT22;54262;44.642;-0.974;2023-12-14T01:15:22;13.20;99.90
67379;DHT22;54262;44.642;-0.974;2023-12-14T01:17:48;13.20;99.90
67379;DHT22;54262;44.642;-0.974;2023-12-14T01:20:13;13.20;99.90
67379;DHT22;54262;44.642;-0.974;2023-12-14T01:22:39;13.20;99.90
67379;DHT22;54262;44.642;-0.974;2023-12-14T01:25:05;13.10;99.90
67379;DHT22;54262;44.642;-0.974;2023-12-14T01:27:30;13.00;99.90
67379;DHT22;54262;44.642;-0.974;2023-12-14T01:29:56;12.90;99.90
67379;DHT22;54262;44.642;-0.974;2023-12-14T01:32:24;12.90;99.90
67379;DHT22;54262;44.642;-0.974;2023-12-14T01:34:50;12.90;99.90
67379;DHT22;54262;44.642;-0.974;2023-12-14T01:37:15;12.80;99.90
67379;DHT22;54262;44.642;-0.974;2023-12-14T01:39:41;12.90;99.90
67379;DHT22;54262;44.642;-0.974;2023-12-14T01:42:09;12.80;99.90
67379;DHT22;54262;44.642;-0.974;2023-12-14T01:44:34;12.70;99.90
67379;DHT22;54262;44.642;-0.974;2023-12-14T01:47:00;12.70;99.90
67379;DHT22;54262;44.642;-0.974;2023-12-14T01:49:26;12.60;99.90
67379;DHT22;54262;44.642;-0.974;2023-12-14T01:51:51;12.50;99.90
67379;DHT22;54262;44.642;-0.974;2023-12-14T01:54:17;12.60;99.90
67379;DHT22;54262;44.642;-0.974;2023-12-14T01:56:42;12.50;99.90
67379;DHT22;54262;44.642;-0.974;2023-12-14T01:59:08;12.40;99.90
67379;DHT22;54262;44.642;-0.974;2023-12-14T02:01:45;12.40;99.90
67379;DHT22;54262;44.642;-0.974;2023-12-14T02:04:13;12.30;99.90
67379;DHT22;54262;44.642;-0.974;2023-12-14T02:06:39;12.30;99.90
67379;DHT22;54262;44.642;-0.974;2023-12-14T02:09:05;12.20;99.90
67379;DHT22;54262;44.642;-0.974;2023-12-14T02:11:31;12.10;99.90
67379;DHT22;54262;44.642;-0.974;2023-12-14T02:13:56;12.10;99.90
67379;DHT22;54262;44.642;-0.974;2023-12-14T02:16:22;12.10;99.90
67379;DHT22;54262;44.642;-0.974;2023-12-14T02:18:48;12.00;99.90
67379;DHT22;54262;44.642;-0.974;2023-12-14T02:21:14;12.00;99.90
67379;DHT22;54262;44.642;-0.974;2023-12-14T02:23:46;12.00;99.90
67379;DHT22;54262;44.642;-0.974;2023-12-14T02:26:12;12.00;99.90
67379;DHT22;54262;44.642;-0.974;2023-12-14T02:28:38;11.80;99.90
67379;DHT22;54262;44.642;-0.974;2023-12-14T02:31:04;11.70;99.90
67379;DHT22;54262;44.642;-0.974;2023-12-14T02:33:32;11.80;99.90
67379;DHT22;54262;44.642;-0.974;2023-12-14T02:35:58;11.80;99.90
67379;DHT22;54262;44.642;-0.974;2023-12-14T02:38:24;11.80;99.90
67379;DHT22;54262;44.642;-0.974;2023-12-14T02:40:50;11.90;99.90
67379;DHT22;54262;44.642;-0.974;2023-12-14T02:43:21;11.80;99.90
67379;DHT22;54262;44.642;-0.974;2023-12-14T02:45:48;11.80;99.90
67379;DHT22;54262;44.642;-0.974;2023-12-14T02:48:14;11.80;99.90
67379;DHT22;54262;44.642;-0.974;2023-12-14T02:50:40;11.80;99.90
67379;DHT22;54262;44.642;-0.974;2023-12-14T02:53:05;11.80;99.90
67379;DHT22;54262;44.642;-0.974;2023-12-14T02:55:31;11.70;99.90
67379;DHT22;54262;44.642;-0.974;2023-12-14T02:57:57;11.80;99.90
67379;DHT22;54262;44.642;-0.974;2023-12-14T03:00:22;11.80;99.90
67379;DHT22;54262;44.642;-0.974;2023-12-14T03:02:48;11.80;99.90
67379;DHT22;54262;44.642;-0.974;2023-12-14T03:05:14;11.80;99.90
67379;DHT22;54262;44.642;-0.974;2023-12-14T03:07:39;11.80;99.90
67379;DHT22;54262;44.642;-0.974;2023-12-14T03:10:05;11.60;99.90
67379;DHT22;54262;44.642;-0.974;2023-12-14T03:12:31;11.60;99.90
67379;DHT22;54262;44.642;-0.974;2023-12-14T03:14:57;11.50;99.90
67379;DHT22;54262;44.642;-0.974;2023-12-14T03:17:22;11.40;99.90
67379;DHT22;54262;44.642;-0.974;2023-12-14T03:19:48;11.40;99.90
67379;DHT22;54262;44.642;-0.974;2023-12-14T03:22:14;11.40;99.90
67379;DHT22;54262;44.642;-0.974;2023-12-14T03:24:39;11.30;99.90
67379;DHT22;54262;44.642;-0.974;2023-12-14T03:27:05;11.30;99.90
67379;DHT22;54262;44.642;-0.974;2023-12-14T03:29:31;11.30;99.90
67379;DHT22;54262;44.642;-0.974;2023-12-14T03:31:57;11.30;99.90
67379;DHT22;54262;44.642;-0.974;2023-12-14T03:34:25;11.30;99.90
67379;DHT22;54262;44.642;-0.974;2023-12-14T03:36:51;11.20;99.90
67379;DHT22;54262;44.642;-0.974;2023-12-14T03:39:17;11.10;99.90
67379;DHT22;54262;44.642;-0.974;2023-12-14T03:41:43;11.20;99.90
67379;DHT22;54262;44.642;-0.974;2023-12-14T03:44:11;11.10;99.90
67379;DHT22;54262;44.642;-0.974;2023-12-14T03:46:37;11.00;99.90
67379;DHT22;54262;44.642;-0.974;2023-12-14T03:49:03;11.00;99.90
67379;DHT22;54262;44.642;-0.974;2023-12-14T03:51:29;11.00;99.90
67379;DHT22;54262;44.642;-0.974;2023-12-14T03:53:55;11.10;99.90
67379;DHT22;54262;44.642;-0.974;2023-12-14T03:56:21;11.10;99.90
67379;DHT22;54262;44.642;-0.974;2023-12-14T03:58:46;11.20;99.90
67379;DHT22;54262;44.642;-0.974;2023-12-14T04:01:17;11.20;99.90
67379;DHT22;54262;44.642;-0.974;2023-12-14T04:03:43;11.20;99.90
67379;DHT22;54262;44.642;-0.974;2023-12-14T04:06:09;11.20;99.90
67379;DHT22;54262;44.642;-0.974;2023-12-14T04:08:34;11.20;99.90
67379;DHT22;54262;44.642;-0.974;2023-12-14T04:11:00;11.20;99.90
67379;DHT22;54262;44.642;-0.974;2023-12-14T04:13:25;11.10;99.90
67379;DHT22;54262;44.642;-0.974;2023-12-14T04:15:57;11.10;99.90
67379;DHT22;54262;44.642;-0.974;2023-12-14T04:18:23;11.10;99.90
67379;DHT22;54262;44.642;-0.974;2023-12-14T04:20:49;11.10;99.90
67379;DHT22;54262;44.642;-0.974;2023-12-14T04:23:15;11.00;99.90
67379;DHT22;54262;44.642;-0.974;2023-12-14T04:25:40;11.00;99.90
67379;DHT22;54262;44.642;-0.974;2023-12-14T04:28:06;11.20;99.90
67379;DHT22;54262;44.642;-0.974;2023-12-14T04:30:36;11.20;99.90
67379;DHT22;54262;44.642;-0.974;2023-12-14T04:33:02;11.20;99.90
67379;DHT22;54262;44.642;-0.974;2023-12-14T04:35:29;11.20;99.90
67379;DHT22;54262;44.642;-0.974;2023-12-14T04:37:56;11.30;99.90
67379;DHT22;54262;44.642;-0.974;2023-12-14T04:40:22;11.20;99.90
67379;DHT22;54262;44.642;-0.974;2023-12-14T04:42:48;11.20;99.90
67379;DHT22;54262;44.642;-0.974;2023-12-14T04:45:15;11.10;99.90
67379;DHT22;54262;44.642;-0.974;2023-12-14T04:47:42;11.00;99.90
67379;DHT22;54262;44.642;-0.974;2023-12-14T04:50:08;10.90;99.90
67379;DHT22;54262;44.642;-0.974;2023-12-14T04:52:34;10.90;99.90
67379;DHT22;54262;44.642;-0.974;2023-12-14T04:55:00;10.90;99.90
67379;DHT22;54262;44.642;-0.974;2023-12-14T04:57:25;10.90;99.90
67379;DHT22;54262;44.642;-0.974;2023-12-14T04:59:51;10.90;99.90
67379;DHT22;54262;44.642;-0.974;2023-12-14T05:02:17;10.80;99.90
67379;DHT22;54262;44.642;-0.974;2023-12-14T05:04:42;10.80;99.90
67379;DHT22;54262;44.642;-0.974;2023-12-14T05:07:08;10.80;99.90
67379;DHT22;54262;44.642;-0.974;2023-12-14T05:09:34;10.80;99.90
67379;DHT22;54262;44.642;-0.974;2023-12-14T05:11:59;10.80;99.90
67379;DHT22;54262;44.642;-0.974;2023-12-14T05:14:25;10.70;99.90
67379;DHT22;54262;44.642;-0.974;2023-12-14T05:16:52;10.70;99.90
67379;DHT22;54262;44.642;-0.974;2023-12-14T05:19:18;10.70;99.90
67379;DHT22;54262;44.642;-0.974;2023-12-14T05:21:44;10.70;99.90
67379;DHT22;54262;44.642;-0.974;2023-12-14T05:24:09;10.60;99.90
67379;DHT22;54262;44.642;-0.974;2023-12-14T05:26:35;10.50;99.90
67379;DHT22;54262;44.642;-0.974;2023-12-14T05:29:01;10.40;99.90
67379;DHT22;54262;44.642;-0.974;2023-12-14T05:31:26;10.40;99.90
67379;DHT22;54262;44.642;-0.974;2023-12-14T05:33:52;10.50;99.90
67379;DHT22;54262;44.642;-0.974;2023-12-14T05:36:20;10.50;99.90
67379;DHT22;54262;44.642;-0.974;2023-12-14T05:38:46;10.60;99.90
67379;DHT22;54262;44.642;-0.974;2023-12-14T05:41:12;10.50;99.90
67379;DHT22;54262;44.642;-0.974;2023-12-14T05:43:37;10.50;99.90
67379;DHT22;54262;44.642;-0.974;2023-12-14T05:46:06;10.40;99.90
67379;DHT22;54262;44.642;-0.974;2023-12-14T05:48:32;10.60;99.90
67379;DHT22;54262;44.642;-0.974;2023-12-14T05:50:59;10.70;99.90
67379;DHT22;54262;44.642;-0.974;2023-12-14T05:53:25;10.60;99.90
67379;DHT22;54262;44.642;-0.974;2023-12-14T05:55:50;10.60;99.90
67379;DHT22;54262;44.642;-0.974;2023-12-14T05:58:16;10.50;99.90
67379;DHT22;54262;44.642;-0.974;2023-12-14T06:00:42;10.60;99.90
67379;DHT22;54262;44.642;-0.974;2023-12-14T06:03:07;10.60;99.90
67379;DHT22;54262;44.642;-0.974;2023-12-14T06:05:33;10.50;99.90
67379;DHT22;54262;44.642;-0.974;2023-12-14T06:07:58;10.50;99.90
67379;DHT22;54262;44.642;-0.974;2023-12-14T06:10:24;10.40;99.90
67379;DHT22;54262;44.642;-0.974;2023-12-14T06:12:50;10.50;99.90
67379;DHT22;54262;44.642;-0.974;2023-12-14T06:15:15;10.50;99.90
67379;DHT22;54262;44.642;-0.974;2023-12-14T06:17:42;10.30;99.90
67379;DHT22;54262;44.642;-0.974;2023-12-14T06:20:08;10.40;99.90
67379;DHT22;54262;44.642;-0.974;2023-12-14T06:22:36;10.30;99.90
67379;DHT22;54262;44.642;-0.974;2023-12-14T06:25:02;10.20;99.90
67379;DHT22;54262;44.642;-0.974;2023-12-14T06:27:28;10.20;99.90
67379;DHT22;54262;44.642;-0.974;2023-12-14T06:29:54;10.10;99.90
67379;DHT22;54262;44.642;-0.974;2023-12-14T06:32:20;10.10;99.90
67379;DHT22;54262;44.642;-0.974;2023-12-14T06:34:46;10.30;99.90
67379;DHT22;54262;44.642;-0.974;2023-12-14T06:37:14;10.20;99.90
67379;DHT22;54262;44.642;-0.974;2023-12-14T06:39:43;10.30;99.90
67379;DHT22;54262;44.642;-0.974;2023-12-14T06:42:09;10.30;99.90
67379;DHT22;54262;44.642;-0.974;2023-12-14T06:44:34;10.30;99.90
67379;DHT22;54262;44.642;-0.974;2023-12-14T06:47:07;10.20;99.90
67379;DHT22;54262;44.642;-0.974;2023-12-14T06:49:33;10.10;99.90
67379;DHT22;54262;44.642;-0.974;2023-12-14T06:51:59;10.10;99.90
67379;DHT22;54262;44.642;-0.974;2023-12-14T06:54:24;10.10;99.90
67379;DHT22;54262;44.642;-0.974;2023-12-14T06:56:50;10.20;99.90
67379;DHT22;54262;44.642;-0.974;2023-12-14T06:59:15;10.10;99.90
67379;DHT22;54262;44.642;-0.974;2023-12-14T07:01:41;10.10;99.90
67379;DHT22;54262;44.642;-0.974;2023-12-14T07:04:07;10.10;99.90
67379;DHT22;54262;44.642;-0.974;2023-12-14T07:06:33;9.90;99.90
67379;DHT22;54262;44.642;-0.974;2023-12-14T07:09:00;9.80;99.90
67379;DHT22;54262;44.642;-0.974;2023-12-14T07:11:26;9.90;99.90
67379;DHT22;54262;44.642;-0.974;2023-12-14T07:13:51;9.90;99.90
67379;DHT22;54262;44.642;-0.974;2023-12-14T07:16:20;9.70;99.90
67379;DHT22;54262;44.642;-0.974;2023-12-14T07:18:45;9.80;99.90
67379;DHT22;54262;44.642;-0.974;2023-12-14T07:21:12;9.90;99.90
67379;DHT22;54262;44.642;-0.974;2023-12-14T07:23:38;10.00;99.90
67379;DHT22;54262;44.642;-0.974;2023-12-14T07:26:04;9.90;99.90
67379;DHT22;54262;44.642;-0.974;2023-12-14T07:28:30;10.00;99.90
67379;DHT22;54262;44.642;-0.974;2023-12-14T07:30:55;10.10;99.90
67379;DHT22;54262;44.642;-0.974;2023-12-14T07:33:21;10.10;99.90
67379;DHT22;54262;44.642;-0.974;2023-12-14T07:35:47;10.10;99.90
67379;DHT22;54262;44.642;-0.974;2023-12-14T07:38:15;10.10;99.90
67379;DHT22;54262;44.642;-0.974;2023-12-14T07:40:40;10.00;99.90
67379;DHT22;54262;44.642;-0.974;2023-12-14T07:43:09;9.90;99.90
67379;DHT22;54262;44.642;-0.974;2023-12-14T07:45:35;9.90;99.90
67379;DHT22;54262;44.642;-0.974;2023-12-14T07:48:03;9.90;99.90
67379;DHT22;54262;44.642;-0.974;2023-12-14T07:50:31;9.90;99.90
67379;DHT22;54262;44.642;-0.974;2023-12-14T07:52:57;9.80;99.90
67379;DHT22;54262;44.642;-0.974;2023-12-14T07:55:23;9.80;99.90
67379;DHT22;54262;44.642;-0.974;2023-12-14T07:57:48;9.80;99.90
67379;DHT22;54262;44.642;-0.974;2023-12-14T08:00:15;9.80;99.90
67379;DHT22;54262;44.642;-0.974;2023-12-14T08:02:41;9.90;99.90
67379;DHT22;54262;44.642;-0.974;2023-12-14T08:05:07;9.90;99.90
67379;DHT22;54262;44.642;-0.974;2023-12-14T08:07:34;10.00;99.90
67379;DHT22;54262;44.642;-0.974;2023-12-14T08:10:00;10.00;99.90
67379;DHT22;54262;44.642;-0.974;2023-12-14T08:12:26;10.10;99.90
67379;DHT22;54262;44.642;-0.974;2023-12-14T08:14:52;10.30;99.90
67379;DHT22;54262;44.642;-0.974;2023-12-14T08:17:20;10.50;99.90
67379;DHT22;54262;44.642;-0.974;2023-12-14T08:19:46;10.60;99.90
67379;DHT22;54262;44.642;-0.974;2023-12-14T08:22:12;10.70;99.90
67379;DHT22;54262;44.642;-0.974;2023-12-14T08:24:40;10.60;99.90
67379;DHT22;54262;44.642;-0.974;2023-12-14T08:27:06;10.90;99.90
67379;DHT22;54262;44.642;-0.974;2023-12-14T08:29:32;10.90;99.90
67379;DHT22;54262;44.642;-0.974;2023-12-14T08:31:58;11.00;99.90
67379;DHT22;54262;44.642;-0.974;2023-12-14T08:34:25;11.10;99.90
67379;DHT22;54262;44.642;-0.974;2023-12-14T08:36:51;11.00;99.90
67379;DHT22;54262;44.642;-0.974;2023-12-14T08:39:19;11.10;99.90
67379;DHT22;54262;44.642;-0.974;2023-12-14T08:41:47;11.20;99.90
67379;DHT22;54262;44.642;-0.974;2023-12-14T08:44:14;11.30;99.90
67379;DHT22;54262;44.642;-0.974;2023-12-14T08:46:42;11.20;99.90
67379;DHT22;54262;44.642;-0.974;2023-12-14T08:49:10;11.10;99.90
67379;DHT22;54262;44.642;-0.974;2023-12-14T08:51:37;11.20;99.90
67379;DHT22;54262;44.642;-0.974;2023-12-14T08:54:03;11.10;99.90
67379;DHT22;54262;44.642;-0.974;2023-12-14T08:56:30;11.30;99.90
67379;DHT22;54262;44.642;-0.974;2023-12-14T08:58:55;11.40;99.90
67379;DHT22;54262;44.642;-0.974;2023-12-14T09:01:25;11.50;99.90
67379;DHT22;54262;44.642;-0.974;2023-12-14T09:03:51;11.60;99.90
67379;DHT22;54262;44.642;-0.974;2023-12-14T09:06:17;11.60;99.90
67379;DHT22;54262;44.642;-0.974;2023-12-14T09:08:44;11.60;99.90
67379;DHT22;54262;44.642;-0.974;2023-12-14T09:11:10;11.70;99.90
67379;DHT22;54262;44.642;-0.974;2023-12-14T09:13:36;11.80;99.90
67379;DHT22;54262;44.642;-0.974;2023-12-14T09:16:05;12.00;99.90
67379;DHT22;54262;44.642;-0.974;2023-12-14T09:18:31;12.00;99.90
67379;DHT22;54262;44.642;-0.974;2023-12-14T09:20:57;12.20;99.90
67379;DHT22;54262;44.642;-0.974;2023-12-14T09:23:22;12.40;99.90
67379;DHT22;54262;44.642;-0.974;2023-12-14T09:25:48;12.60;99.90
67379;DHT22;54262;44.642;-0.974;2023-12-14T09:28:15;12.30;99.90
67379;DHT22;54262;44.642;-0.974;2023-12-14T09:30:40;12.50;99.90
67379;DHT22;54262;44.642;-0.974;2023-12-14T09:33:06;12.60;99.90
67379;DHT22;54262;44.642;-0.974;2023-12-14T09:35:36;12.40;99.90
67379;DHT22;54262;44.642;-0.974;2023-12-14T09:38:06;12.40;99.90
67379;DHT22;54262;44.642;-0.974;2023-12-14T09:40:34;12.40;99.90
67379;DHT22;54262;44.642;-0.974;2023-12-14T09:43:00;12.50;99.90
67379;DHT22;54262;44.642;-0.974;2023-12-14T09:45:29;12.50;99.90
67379;DHT22;54262;44.642;-0.974;2023-12-14T09:48:00;12.40;99.90
67379;DHT22;54262;44.642;-0.974;2023-12-14T09:50:28;12.80;99.90
67379;DHT22;54262;44.642;-0.974;2023-12-14T09:52:55;12.40;99.90
67379;DHT22;54262;44.642;-0.974;2023-12-14T09:55:21;12.60;99.90
67379;DHT22;54262;44.642;-0.974;2023-12-14T09:57:50;12.50;99.90
67379;DHT22;54262;44.642;-0.974;2023-12-14T10:00:36;12.70;99.90
67379;DHT22;54262;44.642;-0.974;2023-12-14T10:03:23;12.70;99.90
67379;DHT22;54262;44.642;-0.974;2023-12-14T10:05:55;12.60;99.90
67379;DHT22;54262;44.642;-0.974;2023-12-14T10:08:22;12.80;99.90
67379;DHT22;54262;44.642;-0.974;2023-12-14T10:10:49;13.00;99.90
67379;DHT22;54262;44.642;-0.974;2023-12-14T10:13:17;13.00;99.90
67379;DHT22;54262;44.642;-0.974;2023-12-14T10:15:48;13.20;99.90
67379;DHT22;54262;44.642;-0.974;2023-12-14T10:18:23;13.60;99.90
67379;DHT22;54262;44.642;-0.974;2023-12-14T10:20:52;13.40;99.90
67379;DHT22;54262;44.642;-0.974;2023-12-14T10:23:18;13.40;99.90
67379;DHT22;54262;44.642;-0.974;2023-12-14T10:25:44;13.40;99.90
67379;DHT22;54262;44.642;-0.974;2023-12-14T10:28:14;13.60;99.90
67379;DHT22;54262;44.642;-0.974;2023-12-14T10:30:41;13.40;99.90
67379;DHT22;54262;44.642;-0.974;2023-12-14T10:33:06;13.50;99.90
67379;DHT22;54262;44.642;-0.974;2023-12-14T10:35:32;13.60;99.90
67379;DHT22;54262;44.642;-0.974;2023-12-14T10:38:01;13.60;99.90
67379;DHT22;54262;44.642;-0.974;2023-12-14T10:40:28;13.50;99.90
67379;DHT22;54262;44.642;-0.974;2023-12-14T10:42:58;13.50;99.90
67379;DHT22;54262;44.642;-0.974;2023-12-14T10:45:28;13.60;99.90
67379;DHT22;54262;44.642;-0.974;2023-12-14T10:47:55;13.60;99.90
67379;DHT22;54262;44.642;-0.974;2023-12-14T10:50:23;13.50;99.90
67379;DHT22;54262;44.642;-0.974;2023-12-14T10:52:52;13.60;99.90
67379;DHT22;54262;44.642;-0.974;2023-12-14T10:55:47;13.50;99.90
67379;DHT22;54262;44.642;-0.974;2023-12-14T10:58:13;13.80;99.90
67379;DHT22;54262;44.642;-0.974;2023-12-14T11:00:39;13.70;99.90
67379;DHT22;54262;44.642;-0.974;2023-12-14T11:03:05;13.80;99.90
67379;DHT22;54262;44.642;-0.974;2023-12-14T11:05:33;14.00;99.90
67379;DHT22;54262;44.642;-0.974;2023-12-14T11:08:03;13.90;99.90
67379;DHT22;54262;44.642;-0.974;2023-12-14T11:10:42;14.00;99.90
67379;DHT22;54262;44.642;-0.974;2023-12-14T11:13:10;13.90;99.90
67379;DHT22;54262;44.642;-0.974;2023-12-14T11:15:37;14.00;99.90
67379;DHT22;54262;44.642;-0.974;2023-12-14T11:20:50;14.40;99.90
67379;DHT22;54262;44.642;-0.974;2023-12-14T11:23:26;14.50;99.90
67379;DHT22;54262;44.642;-0.974;2023-12-14T11:26:00;14.50;99.90
67379;DHT22;54262;44.642;-0.974;2023-12-14T11:28:35;14.40;99.90
67379;DHT22;54262;44.642;-0.974;2023-12-14T11:31:01;14.60;99.90
67379;DHT22;54262;44.642;-0.974;2023-12-14T11:33:32;15.20;99.90
67379;DHT22;54262;44.642;-0.974;2023-12-14T11:35:58;15.10;99.90
67379;DHT22;54262;44.642;-0.974;2023-12-14T11:38:25;15.10;99.90
67379;DHT22;54262;44.642;-0.974;2023-12-14T11:40:51;15.30;99.90
67379;DHT22;54262;44.642;-0.974;2023-12-14T11:43:19;15.60;99.90
67379;DHT22;54262;44.642;-0.974;2023-12-14T11:45:49;15.60;99.90
67379;DHT22;54262;44.642;-0.974;2023-12-14T11:48:18;15.20;99.90
67379;DHT22;54262;44.642;-0.974;2023-12-14T11:50:46;15.50;99.90
67379;DHT22;54262;44.642;-0.974;2023-12-14T11:53:13;15.50;99.90
67379;DHT22;54262;44.642;-0.974;2023-12-14T11:55:41;15.70;99.90
67379;DHT22;54262;44.642;-0.974;2023-12-14T11:58:08;15.60;99.90
67379;DHT22;54262;44.642;-0.974;2023-12-14T12:00:35;15.70;99.90
67379;DHT22;54262;44.642;-0.974;2023-12-14T12:05:44;15.90;99.90
67379;DHT22;54262;44.642;-0.974;2023-12-14T12:08:11;15.80;99.90
67379;DHT22;54262;44.642;-0.974;2023-12-14T12:10:38;16.10;99.90
67379;DHT22;54262;44.642;-0.974;2023-12-14T12:13:07;16.60;99.90
67379;DHT22;54262;44.642;-0.974;2023-12-14T12:15:34;16.80;99.90
67379;DHT22;54262;44.642;-0.974;2023-12-14T12:18:12;16.80;99.90
67379;DHT22;54262;44.642;-0.974;2023-12-14T12:20:38;16.60;99.90
67379;DHT22;54262;44.642;-0.974;2023-12-14T12:23:04;16.70;99.90
67379;DHT22;54262;44.642;-0.974;2023-12-14T12:25:33;16.50;99.90
67379;DHT22;54262;44.642;-0.974;2023-12-14T12:28:00;16.20;99.90
67379;DHT22;54262;44.642;-0.974;2023-12-14T12:30:27;15.90;99.90
67379;DHT22;54262;44.642;-0.974;2023-12-14T12:32:53;16.00;99.90
67379;DHT22;54262;44.642;-0.974;2023-12-14T12:35:24;15.90;99.90
67379;DHT22;54262;44.642;-0.974;2023-12-14T12:37:50;15.90;99.90
67379;DHT22;54262;44.642;-0.974;2023-12-14T12:40:23;15.70;99.90
67379;DHT22;54262;44.642;-0.974;2023-12-14T12:42:51;16.00;99.90
67379;DHT22;54262;44.642;-0.974;2023-12-14T12:45:19;16.00;99.90
67379;DHT22;54262;44.642;-0.974;2023-12-14T12:47:47;16.10;99.90
67379;DHT22;54262;44.642;-0.974;2023-12-14T12:50:13;16.40;99.90
67379;DHT22;54262;44.642;-0.974;2023-12-14T12:52:39;16.50;99.90
67379;DHT22;54262;44.642;-0.974;2023-12-14T12:55:08;16.60;99.90
67379;DHT22;54262;44.642;-0.974;2023-12-14T12:57:35;16.80;99.90
67379;DHT22;54262;44.642;-0.974;2023-12-14T13:00:01;16.70;99.90
67379;DHT22;54262;44.642;-0.974;2023-12-14T13:02:29;17.00;99.90
67379;DHT22;54262;44.642;-0.974;2023-12-14T13:04:54;16.60;99.90
67379;DHT22;54262;44.642;-0.974;2023-12-14T13:07:20;16.80;99.90
67379;DHT22;54262;44.642;-0.974;2023-12-14T13:09:46;16.40;99.90
67379;DHT22;54262;44.642;-0.974;2023-12-14T13:12:11;16.30;99.90
67379;DHT22;54262;44.642;-0.974;2023-12-14T13:14:37;16.20;99.90
67379;DHT22;54262;44.642;-0.974;2023-12-14T13:17:03;16.20;99.90
67379;DHT22;54262;44.642;-0.974;2023-12-14T13:19:29;16.10;99.90
67379;DHT22;54262;44.642;-0.974;2023-12-14T13:21:54;16.10;99.90
67379;DHT22;54262;44.642;-0.974;2023-12-14T13:24:23;15.90;99.90
67379;DHT22;54262;44.642;-0.974;2023-12-14T13:26:52;16.10;99.90
67379;DHT22;54262;44.642;-0.974;2023-12-14T13:29:18;16.20;99.90
67379;DHT22;54262;44.642;-0.974;2023-12-14T13:31:43;16.10;99.90
67379;DHT22;54262;44.642;-0.974;2023-12-14T13:34:09;16.10;99.90
67379;DHT22;54262;44.642;-0.974;2023-12-14T13:36:35;16.00;99.90
67379;DHT22;54262;44.642;-0.974;2023-12-14T13:39:00;15.90;99.90
67379;DHT22;54262;44.642;-0.974;2023-12-14T13:41:27;16.00;99.90
67379;DHT22;54262;44.642;-0.974;2023-12-14T13:43:53;16.40;99.90
67379;DHT22;54262;44.642;-0.974;2023-12-14T13:46:20;16.10;99.90
67379;DHT22;54262;44.642;-0.974;2023-12-14T13:48:47;16.60;99.90
67379;DHT22;54262;44.642;-0.974;2023-12-14T13:51:13;16.70;99.90
67379;DHT22;54262;44.642;-0.974;2023-12-14T13:53:40;16.60;99.90
67379;DHT22;54262;44.642;-0.974;2023-12-14T13:56:08;16.60;99.90
67379;DHT22;54262;44.642;-0.974;2023-12-14T13:58:34;17.00;99.90
67379;DHT22;54262;44.642;-0.974;2023-12-14T14:01:02;17.20;99.90
67379;DHT22;54262;44.642;-0.974;2023-12-14T14:03:28;17.30;99.90
67379;DHT22;54262;44.642;-0.974;2023-12-14T14:05:54;17.30;99.90
67379;DHT22;54262;44.642;-0.974;2023-12-14T14:08:20;17.40;99.90
67379;DHT22;54262;44.642;-0.974;2023-12-14T14:10:46;17.20;99.90
67379;DHT22;54262;44.642;-0.974;2023-12-14T14:13:12;17.00;99.90
67379;DHT22;54262;44.642;-0.974;2023-12-14T14:15:37;17.20;99.90
67379;DHT22;54262;44.642;-0.974;2023-12-14T14:18:03;17.10;99.90
67379;DHT22;54262;44.642;-0.974;2023-12-14T14:20:29;17.10;99.90
67379;DHT22;54262;44.642;-0.974;2023-12-14T14:22:55;17.30;99.90
67379;DHT22;54262;44.642;-0.974;2023-12-14T14:25:21;17.40;99.90
67379;DHT22;54262;44.642;-0.974;2023-12-14T14:27:47;17.40;99.90
67379;DHT22;54262;44.642;-0.974;2023-12-14T14:30:13;17.50;99.90
67379;DHT22;54262;44.642;-0.974;2023-12-14T14:32:39;17.40;99.90
67379;DHT22;54262;44.642;-0.974;2023-12-14T14:35:05;17.50;99.90
67379;DHT22;54262;44.642;-0.974;2023-12-14T14:37:32;17.60;99.90
67379;DHT22;54262;44.642;-0.974;2023-12-14T14:39:57;17.50;99.90
67379;DHT22;54262;44.642;-0.974;2023-12-14T14:42:23;17.50;99.90
67379;DHT22;54262;44.642;-0.974;2023-12-14T14:44:49;17.60;99.90
67379;DHT22;54262;44.642;-0.974;2023-12-14T14:47:17;17.50;99.90
67379;DHT22;54262;44.642;-0.974;2023-12-14T14:49:43;17.50;99.90
67379;DHT22;54262;44.642;-0.974;2023-12-14T14:52:09;17.60;99.90
67379;DHT22;54262;44.642;-0.974;2023-12-14T14:54:35;17.50;99.90
67379;DHT22;54262;44.642;-0.974;2023-12-14T14:57:02;17.50;99.90
67379;DHT22;54262;44.642;-0.974;2023-12-14T14:59:30;17.60;99.90
67379;DHT22;54262;44.642;-0.974;2023-12-14T15:01:56;17.70;99.90
67379;DHT22;54262;44.642;-0.974;2023-12-14T15:04:24;17.40;99.90
67379;DHT22;54262;44.642;-0.974;2023-12-14T15:06:49;17.20;99.90
67379;DHT22;54262;44.642;-0.974;2023-12-14T15:09:15;17.10;99.90
67379;DHT22;54262;44.642;-0.974;2023-12-14T15:11:41;17.00;99.90
67379;DHT22;54262;44.642;-0.974;2023-12-14T15:14:07;17.20;99.90
67379;DHT22;54262;44.642;-0.974;2023-12-14T15:16:33;17.30;99.90
67379;DHT22;54262;44.642;-0.974;2023-12-14T15:18:58;17.10;99.90
67379;DHT22;54262;44.642;-0.974;2023-12-14T15:21:24;16.90;99.90